Map

Track Data

SID SEASON NUMBER BASIN SUBBASIN NAME ISO_TIME NATURE LAT LON WMO_WIND WMO_PRES WMO_AGENCY TRACK_TYPE DIST2LAND LANDFALL IFLAG USA_AGENCY USA_ATCF_ID USA_LAT USA_LON USA_RECORD USA_STATUS USA_WIND USA_PRES USA_SSHS USA_R34_NE USA_R34_SE USA_R34_SW USA_R34_NW USA_R50_NE USA_R50_SE USA_R50_SW USA_R50_NW USA_R64_NE USA_R64_SE USA_R64_SW USA_R64_NW USA_POCI USA_ROCI USA_RMW USA_EYE TOKYO_LAT TOKYO_LON TOKYO_GRADE TOKYO_WIND TOKYO_PRES TOKYO_R50_DIR TOKYO_R50_LONG TOKYO_R50_SHORT TOKYO_R30_DIR TOKYO_R30_LONG TOKYO_R30_SHORT TOKYO_LAND CMA_LAT CMA_LON CMA_CAT CMA_WIND CMA_PRES HKO_LAT HKO_LON HKO_CAT HKO_WIND HKO_PRES NEWDELHI_LAT NEWDELHI_LON NEWDELHI_GRADE NEWDELHI_WIND NEWDELHI_PRES NEWDELHI_CI NEWDELHI_DP NEWDELHI_POCI REUNION_LAT REUNION_LON REUNION_TYPE REUNION_WIND REUNION_PRES REUNION_TNUM REUNION_CI REUNION_RMW REUNION_R34_NE REUNION_R34_SE REUNION_R34_SW REUNION_R34_NW REUNION_R50_NE REUNION_R50_SE REUNION_R50_SW REUNION_R50_NW REUNION_R64_NE REUNION_R64_SE REUNION_R64_SW REUNION_R64_NW BOM_LAT BOM_LON BOM_TYPE BOM_WIND BOM_PRES BOM_TNUM BOM_CI BOM_RMW BOM_R34_NE BOM_R34_SE BOM_R34_SW BOM_R34_NW BOM_R50_NE BOM_R50_SE BOM_R50_SW BOM_R50_NW BOM_R64_NE BOM_R64_SE BOM_R64_SW BOM_R64_NW BOM_ROCI BOM_POCI BOM_EYE BOM_POS_METHOD BOM_PRES_METHOD NADI_LAT NADI_LON NADI_CAT NADI_WIND NADI_PRES WELLINGTON_LAT WELLINGTON_LON WELLINGTON_WIND WELLINGTON_PRES DS824_LAT DS824_LON DS824_STAGE DS824_WIND DS824_PRES TD9636_LAT TD9636_LON TD9636_STAGE TD9636_WIND TD9636_PRES TD9635_LAT TD9635_LON TD9635_WIND TD9635_PRES TD9635_ROCI NEUMANN_LAT NEUMANN_LON NEUMANN_CLASS NEUMANN_WIND NEUMANN_PRES MLC_LAT MLC_LON MLC_CLASS MLC_WIND MLC_PRES USA_GUST BOM_GUST BOM_GUST_PER REUNION_GUST REUNION_GUST_PER USA_SEAHGT USA_SEARAD_NE USA_SEARAD_SE USA_SEARAD_SW USA_SEARAD_NW STORM_SPEED STORM_DIR
1990253N12248 1990 85 EP MM NORBERT 1990-09-10 00:00:00 TS 12.2000 -111.600 25 1009 hurdat_epa main 1069 1068 O_____________ hurdat_epa EP171990 12.2000 -111.600 TD 25 1009 -1 3 312
1990253N12248 1990 85 EP MM NORBERT 1990-09-10 03:00:00 TS 12.2925 -111.707 main 1068 1067 P_____________ EP171990 12.2925 -111.707 TD 27 1009 -1 3 316
1990253N12248 1990 85 EP MM NORBERT 1990-09-10 06:00:00 TS 12.4000 -111.800 30 1009 hurdat_epa main 1067 1059 O_____________ hurdat_epa EP171990 12.4000 -111.800 TD 30 1009 -1 3 327
1990253N12248 1990 85 EP MM NORBERT 1990-09-10 09:00:00 TS 12.5350 -111.865 main 1067 1051 P_____________ EP171990 12.5350 -111.865 TD 30 1008 -1 3 343
1990253N12248 1990 85 EP MM NORBERT 1990-09-10 12:00:00 TS 12.7000 -111.900 30 1008 hurdat_epa main 1051 1035 O_____________ hurdat_epa EP171990 12.7000 -111.900 TD 30 1008 -1 4 354
1990253N12248 1990 85 EP MM NORBERT 1990-09-10 15:00:00 TS 12.9000 -111.900 main 1035 1019 P_____________ EP171990 12.9000 -111.900 TD 32 1006 -1 4 0
1990253N12248 1990 85 EP MM NORBERT 1990-09-10 18:00:00 TS 13.1000 -111.900 35 1005 hurdat_epa main 1019 1011 O_____________ hurdat_epa EP171990 13.1000 -111.900 TS 35 1005 0 4 356
1990253N12248 1990 85 EP MM NORBERT 1990-09-10 21:00:00 TS 13.2575 -111.928 main 1003 1003 P_____________ EP171990 13.2575 -111.928 TS 37 1003 0 3 343
1990253N12248 1990 85 EP MM NORBERT 1990-09-11 00:00:00 TS 13.4000 -112.000 40 1002 hurdat_epa main 1003 1003 O_____________ hurdat_epa EP171990 13.4000 -112.000 TS 40 1002 0 3 323
1990253N12248 1990 85 EP MM NORBERT 1990-09-11 03:00:00 TS 13.5275 -112.135 main 1003 1002 P_____________ EP171990 13.5275 -112.135 TS 42 1001 0 4 316
1990253N12248 1990 85 EP MM NORBERT 1990-09-11 06:00:00 TS 13.7000 -112.300 45 1000 hurdat_epa main 1003 995 O_____________ hurdat_epa EP171990 13.7000 -112.300 TS 45 1000 0 5 323
1990253N12248 1990 85 EP MM NORBERT 1990-09-11 09:00:00 TS 13.9475 -112.465 main 1004 983 P_____________ EP171990 13.9475 -112.465 TS 45 1000 0 7 334
1990253N12248 1990 85 EP MM NORBERT 1990-09-11 12:00:00 TS 14.3000 -112.600 45 1000 hurdat_epa main 983 960 O_____________ hurdat_epa EP171990 14.3000 -112.600 TS 45 1000 0 9 346
1990253N12248 1990 85 EP MM NORBERT 1990-09-11 15:00:00 TS 14.7775 -112.673 main 949 896 P_____________ EP171990 14.7775 -112.673 TS 45 1000 0 10 354
1990253N12248 1990 85 EP MM NORBERT 1990-09-11 18:00:00 TS 15.3000 -112.700 45 1000 hurdat_epa main 896 853 O_____________ hurdat_epa EP171990 15.3000 -112.700 TS 45 1000 0 10 360
1990253N12248 1990 85 EP MM NORBERT 1990-09-11 21:00:00 TS 15.7650 -112.700 main 843 800 P_____________ EP171990 15.7650 -112.700 TS 45 1000 0 9 0
1990253N12248 1990 85 EP MM NORBERT 1990-09-12 00:00:00 TS 16.2000 -112.700 45 1000 hurdat_epa main 800 759 O_____________ hurdat_epa EP171990 16.2000 -112.700 TS 45 1000 0 8 0
1990253N12248 1990 85 EP MM NORBERT 1990-09-12 03:00:00 TS 16.5849 -112.698 main 759 721 P_____________ EP171990 16.5849 -112.698 TS 45 1001 0 8 353
1990253N12248 1990 85 EP MM NORBERT 1990-09-12 06:00:00 TS 17.0000 -112.800 45 1003 hurdat_epa main 721 680 O_____________ hurdat_epa EP171990 17.0000 -112.800 TS 45 1003 0 10 339
1990253N12248 1990 85 EP MM NORBERT 1990-09-12 09:00:00 TS 17.5199 -113.075 main 685 648 P_____________ EP171990 17.5199 -113.075 TS 42 1004 0 13 329
1990253N12248 1990 85 EP MM NORBERT 1990-09-12 12:00:00 TS 18.1000 -113.500 40 1005 hurdat_epa main 648 627 O_____________ hurdat_epa EP171990 18.1000 -113.500 TS 40 1005 0 15 324
1990253N12248 1990 85 EP MM NORBERT 1990-09-12 15:00:00 TS 18.7376 -114.020 main 627 616 P_____________ EP171990 18.7376 -114.020 TS 37 1005 0 16 319
1990253N12248 1990 85 EP MM NORBERT 1990-09-12 18:00:00 TS 19.3000 -114.600 35 1005 hurdat_epa main 624 624 O_____________ hurdat_epa EP171990 19.3000 -114.600 TS 35 1005 0 14 311
1990253N12248 1990 85 EP MM NORBERT 1990-09-12 21:00:00 TS 19.6749 -115.165 main 640 637 P_____________ EP171990 19.6749 -115.165 TS 37 1003 0 12 300
1990253N12248 1990 85 EP MM NORBERT 1990-09-13 00:00:00 TS 19.9000 -115.700 40 1002 hurdat_epa main 651 648 O_____________ hurdat_epa EP171990 19.9000 -115.700 TS 40 1002 0 10 291
1990253N12248 1990 85 EP MM NORBERT 1990-09-13 03:00:00 TS 20.0448 -116.165 main 673 664 P_____________ EP171990 20.0448 -116.165 TS 42 1001 0 9 283
1990253N12248 1990 85 EP MM NORBERT 1990-09-13 06:00:00 TS 20.1000 -116.600 45 1000 hurdat_epa main 691 691 O_____________ hurdat_epa EP171990 20.1000 -116.600 TS 45 1000 0 8 273
1990253N12248 1990 85 EP MM NORBERT 1990-09-13 09:00:00 TS 20.0924 -117.058 main 726 726 P_____________ EP171990 20.0924 -117.058 TS 47 997 0 8 270
1990253N12248 1990 85 EP MM NORBERT 1990-09-13 12:00:00 TS 20.1000 -117.500 50 995 hurdat_epa main 756 756 O_____________ hurdat_epa EP171990 20.1000 -117.500 TS 50 995 0 8 280
1990253N12248 1990 85 EP MM NORBERT 1990-09-13 15:00:00 TS 20.2272 -117.892 main 778 778 P_____________ EP171990 20.2272 -117.892 TS 52 993 0 8 292
1990253N12248 1990 85 EP MM NORBERT 1990-09-13 18:00:00 TS 20.4000 -118.300 55 992 hurdat_epa main 795 795 O_____________ hurdat_epa EP171990 20.4000 -118.300 TS 55 992 0 9 292
1990253N12248 1990 85 EP MM NORBERT 1990-09-13 21:00:00 TS 20.5650 -118.785 main 823 823 P_____________ EP171990 20.5650 -118.785 TS 60 989 0 10 288
1990253N12248 1990 85 EP MM NORBERT 1990-09-14 00:00:00 TS 20.7000 -119.300 65 987 hurdat_epa main 859 859 O_____________ hurdat_epa EP171990 20.7000 -119.300 HU 65 987 1 10 282
1990253N12248 1990 85 EP MM NORBERT 1990-09-14 03:00:00 TS 20.7573 -119.793 main 897 897 P_____________ EP171990 20.7573 -119.793 HU 65 987 1 9 276
1990253N12248 1990 85 EP MM NORBERT 1990-09-14 06:00:00 TS 20.8000 -120.300 65 987 hurdat_epa main 932 932 O_____________ hurdat_epa EP171990 20.8000 -120.300 HU 65 987 1 10 278
1990253N12248 1990 85 EP MM NORBERT 1990-09-14 09:00:00 TS 20.8924 -120.842 main 957 957 P_____________ EP171990 20.8924 -120.842 HU 65 987 1 10 281
1990253N12248 1990 85 EP MM NORBERT 1990-09-14 12:00:00 TS 21.0000 -121.400 65 987 hurdat_epa main 989 989 O_____________ hurdat_epa EP171990 21.0000 -121.400 HU 65 987 1 11 282
1990253N12248 1990 85 EP MM NORBERT 1990-09-14 15:00:00 TS 21.1224 -121.957 main 1022 1020 P_____________ EP171990 21.1224 -121.957 HU 65 987 1 10 281
1990253N12248 1990 85 EP MM NORBERT 1990-09-14 18:00:00 TS 21.2000 -122.500 65 987 hurdat_epa main 1049 1049 O_____________ hurdat_epa EP171990 21.2000 -122.500 HU 65 987 1 10 272
1990253N12248 1990 85 EP MM NORBERT 1990-09-14 21:00:00 TS 21.1649 -123.015 main 1086 1086 P_____________ EP171990 21.1649 -123.015 HU 65 986 1 9 264
1990253N12248 1990 85 EP MM NORBERT 1990-09-15 00:00:00 TS 21.1000 -123.500 65 985 hurdat_epa main 1132 1132 O_____________ hurdat_epa EP171990 21.1000 -123.500 HU 65 985 1 9 266
1990253N12248 1990 85 EP MM NORBERT 1990-09-15 03:00:00 TS 21.0998 -123.957 main 1171 1171 P_____________ EP171990 21.0998 -123.957 HU 67 984 1 8 270
1990253N12248 1990 85 EP MM NORBERT 1990-09-15 06:00:00 TS 21.1000 -124.400 70 983 hurdat_epa main 1202 1202 O_____________ hurdat_epa EP171990 21.1000 -124.400 HU 70 983 1 8 267
1990253N12248 1990 85 EP MM NORBERT 1990-09-15 09:00:00 TS 21.0574 -124.850 main 1243 1243 P_____________ EP171990 21.0574 -124.850 HU 67 985 1 8 263
1990253N12248 1990 85 EP MM NORBERT 1990-09-15 12:00:00 TS 21.0000 -125.300 65 987 hurdat_epa main 1282 1282 O_____________ hurdat_epa EP171990 21.0000 -125.300 HU 65 987 1 9 263
1990253N12248 1990 85 EP MM NORBERT 1990-09-15 15:00:00 TS 20.9500 -125.765 main 1330 1330 P_____________ EP171990 20.9500 -125.765 HU 60 990 0 8 263
1990253N12248 1990 85 EP MM NORBERT 1990-09-15 18:00:00 TS 20.9000 -126.200 55 993 hurdat_epa main 1364 1364 O_____________ hurdat_epa EP171990 20.9000 -126.200 TS 55 993 0 8 263
1990253N12248 1990 85 EP MM NORBERT 1990-09-15 21:00:00 TS 20.8499 -126.580 main 1404 1404 P_____________ EP171990 20.8499 -126.580 TS 55 993 0 7 261
1990253N12248 1990 85 EP MM NORBERT 1990-09-16 00:00:00 TS 20.8000 -126.900 55 993 hurdat_epa main 1429 1429 O_____________ hurdat_epa EP171990 20.8000 -126.900 TS 55 993 0 6 259
1990253N12248 1990 85 EP MM NORBERT 1990-09-16 03:00:00 TS 20.7425 -127.188 main 1461 1461 P_____________ EP171990 20.7425 -127.188 TS 55 993 0 5 258
1990253N12248 1990 85 EP MM NORBERT 1990-09-16 06:00:00 TS 20.7000 -127.400 55 993 hurdat_epa main 1479 1479 O_____________ hurdat_epa EP171990 20.7000 -127.400 TS 55 993 0 3 259
1990253N12248 1990 85 EP MM NORBERT 1990-09-16 09:00:00 TS 20.6774 -127.530 main 1487 1487 P_____________ EP171990 20.6774 -127.530 TS 55 993 0 2 270
1990253N12248 1990 85 EP MM NORBERT 1990-09-16 12:00:00 TS 20.7000 -127.600 55 993 hurdat_epa main 1496 1490 O_____________ hurdat_epa EP171990 20.7000 -127.600 TS 55 993 0 2 309
1990253N12248 1990 85 EP MM NORBERT 1990-09-16 15:00:00 TS 20.7700 -127.658 main 1498 1492 P_____________ EP171990 20.7700 -127.658 TS 55 994 0 2 333
1990253N12248 1990 85 EP MM NORBERT 1990-09-16 18:00:00 TS 20.9000 -127.700 55 995 hurdat_epa main 1492 1480 O_____________ hurdat_epa EP171990 20.9000 -127.700 TS 55 995 0 3 347
1990253N12248 1990 85 EP MM NORBERT 1990-09-16 21:00:00 TS 21.0925 -127.743 main 1480 1477 P_____________ EP171990 21.0925 -127.743 TS 52 996 0 4 347
1990253N12248 1990 85 EP MM NORBERT 1990-09-17 00:00:00 TS 21.3000 -127.800 50 998 hurdat_epa main 1477 1471 O_____________ hurdat_epa EP171990 21.3000 -127.800 TS 50 998 0 4 340
1990253N12248 1990 85 EP MM NORBERT 1990-09-17 03:00:00 TS 21.4575 -127.893 main 1474 1474 P_____________ EP171990 21.4575 -127.893 TS 47 998 0 4 329
1990253N12248 1990 85 EP MM NORBERT 1990-09-17 06:00:00 TS 21.6000 -128.000 45 999 hurdat_epa main 1477 1472 O_____________ hurdat_epa EP171990 21.6000 -128.000 TS 45 999 0 3 327
1990253N12248 1990 85 EP MM NORBERT 1990-09-17 09:00:00 TS 21.7425 -128.093 main 1481 1475 P_____________ EP171990 21.7425 -128.093 TS 45 999 0 4 329
1990253N12248 1990 85 EP MM NORBERT 1990-09-17 12:00:00 TS 21.9000 -128.200 45 1000 hurdat_epa main 1479 1474 O_____________ hurdat_epa EP171990 21.9000 -128.200 TS 45 1000 0 4 325
1990253N12248 1990 85 EP MM NORBERT 1990-09-17 15:00:00 TS 22.0925 -128.357 main 1487 1482 P_____________ EP171990 22.0925 -128.357 TS 42 1001 0 5 325
1990253N12248 1990 85 EP MM NORBERT 1990-09-17 18:00:00 TS 22.3000 -128.500 40 1002 hurdat_epa main 1486 1481 O_____________ hurdat_epa EP171990 22.3000 -128.500 TS 40 1002 0 5 335
1990253N12248 1990 85 EP MM NORBERT 1990-09-17 21:00:00 TS 22.5150 -128.565 main 1485 1475 P_____________ EP171990 22.5150 -128.565 TS 37 1003 0 4 348
1990253N12248 1990 85 EP MM NORBERT 1990-09-18 00:00:00 TS 22.7000 -128.600 35 1005 hurdat_epa main 1475 1471 O_____________ hurdat_epa EP171990 22.7000 -128.600 TS 35 1005 0 3 344
1990253N12248 1990 85 EP MM NORBERT 1990-09-18 03:00:00 TS 22.8150 -128.650 main 1480 1475 P_____________ EP171990 22.8150 -128.650 TS 32 1006 -1 2 335
1990253N12248 1990 85 EP MM NORBERT 1990-09-18 06:00:00 TS 22.9000 -128.700 30 1007 hurdat_epa main 1475 1471 O_____________ hurdat_epa EP171990 22.9000 -128.700 TD 30 1007 -1 2 339
1990253N12248 1990 85 EP MM NORBERT 1990-09-18 09:00:00 TS 23.0075 -128.728 main 1471 1471 P_____________ EP171990 23.0075 -128.728 TD 30 1008 -1 2 335
1990253N12248 1990 85 EP MM NORBERT 1990-09-18 12:00:00 TS 23.1000 -128.800 30 1010 hurdat_epa main 1476 1476 O_____________ hurdat_epa EP171990 23.1000 -128.800 TD 30 1010 -1 3 307
1990253N12248 1990 85 EP MM NORBERT 1990-09-18 15:00:00 TS 23.1649 -128.955 main 1490 1490 P_____________ EP171990 23.1649 -128.955 TD 27 1010 -1 4 285
1990253N12248 1990 85 EP MM NORBERT 1990-09-18 18:00:00 TS 23.2000 -129.200 25 1010 hurdat_epa main 1508 1508 O_____________ hurdat_epa EP171990 23.2000 -129.200 TD 25 1010 -1 5 276
1990253N12248 1990 85 EP MM NORBERT 1990-09-18 21:00:00 TS 23.2150 -129.520 main 1524 1524 P_____________ EP171990 23.2150 -129.520 TD 25 1010 -1 6 270
1990253N12248 1990 85 EP MM NORBERT 1990-09-19 00:00:00 TS 23.2000 -129.900 25 1010 hurdat_epa main 1547 1547 O_____________ hurdat_epa EP171990 23.2000 -129.900 TD 25 1010 -1 7 266
1990253N12248 1990 85 EP MM NORBERT 1990-09-19 03:00:00 TS 23.1649 -130.285 main 1570 1570 P_____________ EP171990 23.1649 -130.285 TD 25 1010 -1 7 262
1990253N12248 1990 85 EP MM NORBERT 1990-09-19 06:00:00 TS 23.1000 -130.700 25 1010 hurdat_epa main 1603 1603 O_____________ hurdat_epa EP171990 23.1000 -130.700 TD 25 1010 -1 8 259
1990253N12248 1990 85 EP MM NORBERT 1990-09-19 09:00:00 TS 23.0078 -131.143 main 1636 1636 P_____________ EP171990 23.0078 -131.143 TD 22 1010 -1 9 256
1990253N12248 1990 85 EP MM NORBERT 1990-09-19 12:00:00 TS 22.9000 -131.600 20 1011 hurdat_epa main 1676 O_____________ hurdat_epa EP171990 22.9000 -131.600 TD 20 1011 -1 9 256

About IBTrACS Database

This database is a web-friendly format of International Best Track Archive for Climate Stewardship (IBTrACS), a global best track data archive curated by NOAA dating back to 1842.

Updated: 2021-12-03